Drimmelen, Netherlands
Current Conditions -  °F | °C
As of 1:25 AM on Thursday 29 Jan 2015 (Local Time) from EHGR Reporting Station
Broken Clouds Broken Clouds  
Wind Chill: 30°   Ceiling: 4600
Heat Index: 37°   Visibility: 6mi
Dew Point: 30°   Wind: 10mph
Humidity: 75%   Direction: 240°WSW
Pressure: 29.41"   Gusts: NA
Location:  51.71°N, 4.8°E
Report Text: EHGR 290025Z AUTO 24009KT 9999 FEW036 BKN046 BKN052 03/M01 Q0996 BLU
Loading
Personal Weather Stations






























Interactive Weather Map New forecast layout! Learn more

10-Day Weather Forecast

Advertisements
Track Severe Weather on mobile